Terminal Aerodrome Forecast
Issued by NWS Austin/San Antonio, TX

Current Version | Previous Version | Text Only | Print | Product List | Glossary Off
Versions: 1 2 3 4 5 6 7 8 9 10 11 12 13 14 15 16 17 18 19 20 21

000
FTUS44 KEWX 011100
TAFAUS
TAF
KAUS 011134Z 0112/0218 19008KT P6SM SCT025 OVC040
     FM011300 19007KT 4SM BR OVC008
     FM011600 24009KT P6SM BKN025
      TEMPO 0117/0119 5SM -TSRA BR BKN015CB
     FM011900 34013KT P6SM OVC050
     FM012100 01018G28KT P6SM BKN100=

USA.gov is the U.S. government's official web portal to all federal, state and local government web resources and services.